Time;durP1;ratioP1;P1;durP2;ratioP2;P2;SDS_P1;SDS_P2;PMS_P1;PMS_P2;Temp;Humidity;BMP_temperature;BMP_pressure;BME280_temperature;BME280_humidity;BME280_pressure;Samples;Min_cycle;Max_cycle;Signal;HPM_P1;HPM_P2
2023/06/16 00:01:41;;;;;;;5.90;3.45;;;21.40;49.50;;;;;;5117104;28;20047;-75
2023/06/16 00:04:08;;;;;;;6.38;3.83;;;21.40;49.90;;;;;;5116964;28;20032;-75
2023/06/16 00:06:36;;;;;;;7.05;4.05;;;21.30;49.40;;;;;;5135067;28;20015;-75
2023/06/16 00:09:02;;;;;;;4.93;3.60;;;21.30;49.40;;;;;;5117303;28;20031;-74
2023/06/16 00:11:28;;;;;;;7.40;3.90;;;21.30;49.60;;;;;;5134945;28;20027;-75
2023/06/16 00:13:54;;;;;;;9.90;3.85;;;21.30;49.70;;;;;;5116845;28;20024;-75
2023/06/16 00:16:20;;;;;;;7.22;4.03;;;21.30;50.10;;;;;;5134861;28;20051;-74
2023/06/16 00:18:51;;;;;;;6.13;3.88;;;21.10;50.80;;;;;;5116120;28;20119;-75
2023/06/16 00:21:29;;;;;;;8.07;4.10;;;21.00;50.80;;;;;;5116836;28;20016;-74
2023/06/16 00:23:56;;;;;;;6.22;3.55;;;21.00;51.50;;;;;;5099856;28;20020;-75
2023/06/16 00:26:26;;;;;;;8.35;4.10;;;21.00;52.50;;;;;;5099538;28;20052;-75
2023/06/16 00:28:52;;;;;;;7.03;3.58;;;20.90;52.60;;;;;;5116526;28;20034;-74
2023/06/16 00:31:17;;;;;;;6.90;3.67;;;20.90;53.30;;;;;;5134732;28;20051;-75
2023/06/16 00:33:43;;;;;;;5.53;3.75;;;20.80;53.10;;;;;;5116385;28;20019;-75
2023/06/16 00:36:09;;;;;;;4.00;3.38;;;20.80;52.40;;;;;;5116424;28;20028;-75
2023/06/16 00:38:34;;;;;;;6.50;3.70;;;20.90;52.00;;;;;;5116294;28;20053;-75
2023/06/16 00:41:00;;;;;;;6.40;3.97;;;20.90;51.50;;;;;;5099270;28;20069;-75
2023/06/16 00:43:26;;;;;;;6.72;3.80;;;20.80;51.10;;;;;;5134388;28;20034;-75
2023/06/16 00:45:52;;;;;;;6.70;3.70;;;20.80;50.70;;;;;;5134225;28;20011;-74
2023/06/16 00:48:19;;;;;;;8.57;3.50;;;20.90;50.70;;;;;;5116345;28;20032;-74
2023/06/16 00:50:46;;;;;;;5.75;3.53;;;20.80;51.10;;;;;;5134290;28;20027;-74
2023/06/16 00:53:11;;;;;;;5.82;3.75;;;20.70;51.50;;;;;;5116287;28;20032;-74
2023/06/16 00:55:37;;;;;;;5.43;3.80;;;20.70;52.00;;;;;;5134378;28;20069;-74
2023/06/16 00:58:04;;;;;;;5.03;3.60;;;20.60;52.40;;;;;;5082510;28;20028;-75
2023/06/16 01:00:36;;;;;;;9.52;3.83;;;20.60;52.30;;;;;;5116143;28;20049;-75
2023/06/16 01:03:05;;;;;;;6.70;3.85;;;20.60;52.10;;;;;;5134195;28;20083;-75
2023/06/16 01:05:32;;;;;;;5.40;3.85;;;20.60;52.10;;;;;;5134073;28;20118;-75
2023/06/16 01:08:13;;;;;;;6.75;3.83;;;20.60;52.30;;;;;;5133935;28;20034;-74
2023/06/16 01:10:58;;;;;;;5.63;3.97;;;20.60;51.40;;;;;;5134008;28;20028;-74
2023/06/16 01:13:53;;;;;;;7.47;4.10;;;20.50;51.30;;;;;;5115909;28;20023;-75
2023/06/16 01:16:29;;;;;;;5.65;3.55;;;20.40;51.80;;;;;;5116098;28;20027;-74
2023/06/16 01:18:55;;;;;;;5.90;4.00;;;20.40;52.00;;;;;;5115933;28;20022;-74
2023/06/16 01:21:41;;;;;;;5.88;3.75;;;20.20;52.30;;;;;;5133937;28;20024;-74
2023/06/16 01:24:14;;;;;;;5.03;3.58;;;20.20;52.20;;;;;;5133919;28;20019;-74
2023/06/16 01:26:47;;;;;;;6.18;3.72;;;20.20;52.00;;;;;;5133792;28;20016;-74
2023/06/16 01:29:13;;;;;;;7.68;3.63;;;20.20;52.00;;;;;;5115856;28;20055;-75
2023/06/16 01:31:41;;;;;;;6.22;3.72;;;20.10;52.30;;;;;;5137378;28;20028;-74
2023/06/16 01:34:08;;;;;;;6.47;3.83;;;20.10;52.50;;;;;;5102988;28;20024;-74
2023/06/16 01:36:37;;;;;;;5.93;4.20;;;20.00;52.50;;;;;;5119920;28;20050;-74
2023/06/16 01:39:04;;;;;;;7.93;3.90;;;19.90;52.60;;;;;;5137730;28;20055;-74
2023/06/16 01:41:30;;;;;;;5.70;4.00;;;20.00;52.60;;;;;;5119803;28;20048;-75
2023/06/16 01:43:56;;;;;;;5.75;4.00;;;20.00;52.60;;;;;;5119776;28;20065;-75
2023/06/16 01:46:23;;;;;;;5.78;3.95;;;20.00;52.30;;;;;;5137812;28;20015;-75
2023/06/16 01:48:49;;;;;;;5.10;3.90;;;20.00;52.60;;;;;;5137762;28;20019;-74
2023/06/16 01:51:15;;;;;;;10.70;4.22;;;20.00;52.90;;;;;;5137720;28;20019;-74
2023/06/16 01:53:41;;;;;;;8.43;4.00;;;19.90;52.50;;;;;;5137628;28;20024;-75
2023/06/16 01:56:10;;;;;;;8.68;4.15;;;19.90;52.30;;;;;;5119603;28;20055;-74
2023/06/16 01:58:36;;;;;;;8.55;4.10;;;19.90;52.70;;;;;;5119573;28;20051;-75
2023/06/16 02:01:15;;;;;;;9.73;4.80;;;19.80;52.50;;;;;;5119590;28;20031;-75
2023/06/16 02:03:46;;;;;;;6.75;4.25;;;19.70;52.80;;;;;;5119421;28;20049;-74
2023/06/16 02:06:18;;;;;;;9.80;4.57;;;19.70;52.90;;;;;;5137429;28;20020;-74
2023/06/16 02:08:46;;;;;;;6.53;3.88;;;19.60;52.80;;;;;;5119344;28;20047;-74
2023/06/16 02:11:12;;;;;;;4.45;3.63;;;19.60;53.10;;;;;;5137315;28;20027;-74
2023/06/16 02:13:38;;;;;;;7.60;3.90;;;19.60;53.40;;;;;;5119468;28;20032;-75
2023/06/16 02:16:05;;;;;;;4.97;3.72;;;19.50;53.60;;;;;;5102381;28;20087;-75
2023/06/16 02:18:32;;;;;;;6.43;3.80;;;19.50;53.50;;;;;;5119040;28;20084;-75
2023/06/16 02:20:58;;;;;;;6.47;4.05;;;19.50;53.40;;;;;;5119177;28;20027;-74
2023/06/16 02:23:25;;;;;;;6.45;4.07;;;19.40;54.50;;;;;;5137081;28;20394;-74
2023/06/16 02:25:51;;;;;;;6.25;4.10;;;19.40;53.60;;;;;;5137080;28;20020;-74
2023/06/16 02:28:17;;;;;;;6.03;3.92;;;19.30;53.50;;;;;;5119087;28;20079;-74
2023/06/16 02:30:43;;;;;;;6.72;3.78;;;19.20;53.50;;;;;;5118841;28;20028;-74
2023/06/16 02:33:12;;;;;;;6.93;4.03;;;19.20;53.40;;;;;;5118906;28;20417;-74
2023/06/16 02:35:38;;;;;;;6.28;4.15;;;19.30;53.50;;;;;;5136863;28;20022;-74
2023/06/16 02:38:04;;;;;;;7.70;4.28;;;19.30;53.60;;;;;;5118884;28;20032;-74
2023/06/16 02:40:30;;;;;;;6.63;3.63;;;19.30;53.70;;;;;;5118661;28;20055;-74
2023/06/16 02:42:55;;;;;;;9.05;4.22;;;19.20;53.50;;;;;;5136057;28;20024;-74
2023/06/16 02:45:21;;;;;;;9.57;4.45;;;19.20;53.60;;;;;;5136668;28;20027;-74
2023/06/16 02:47:47;;;;;;;12.43;4.28;;;19.20;53.80;;;;;;5136623;28;20039;-75
2023/06/16 02:50:12;;;;;;;7.80;3.90;;;19.00;53.90;;;;;;5136591;28;20053;-74
2023/06/16 02:52:41;;;;;;;8.57;4.30;;;18.90;54.20;;;;;;5136495;28;20036;-74
2023/06/16 02:55:08;;;;;;;9.68;4.30;;;18.90;54.30;;;;;;5136458;28;20024;-75
2023/06/16 02:57:34;;;;;;;6.55;3.92;;;18.90;54.40;;;;;;5118463;28;20024;-74
2023/06/16 02:59:59;;;;;;;7.22;4.57;;;18.90;54.60;;;;;;5084679;28;20046;-76
2023/06/16 03:02:25;;;;;;;7.95;4.55;;;18.80;54.70;;;;;;5118455;28;20028;-75
2023/06/16 03:04:51;;;;;;;6.97;4.43;;;18.80;55.10;;;;;;5118229;28;20035;-74
2023/06/16 03:07:17;;;;;;;7.28;4.75;;;18.60;55.50;;;;;;5118187;28;20037;-74
2023/06/16 03:09:43;;;;;;;10.35;4.65;;;18.50;56.30;;;;;;5118160;28;20024;-74
2023/06/16 03:12:10;;;;;;;8.65;4.50;;;18.50;56.40;;;;;;5136129;28;20020;-75
2023/06/16 03:14:35;;;;;;;8.05;4.68;;;18.50;56.40;;;;;;5118448;28;20036;-76
2023/06/16 03:17:01;;;;;;;7.18;4.15;;;18.50;56.10;;;;;;5101042;28;20047;-76
2023/06/16 03:19:27;;;;;;;8.73;4.70;;;18.50;56.00;;;;;;5117821;28;20028;-75
2023/06/16 03:21:53;;;;;;;7.93;4.95;;;18.60;55.80;;;;;;5136021;28;20024;-76
2023/06/16 03:24:19;;;;;;;5.78;3.92;;;18.60;55.70;;;;;;5101093;28;20117;-75
2023/06/16 03:26:46;;;;;;;7.50;4.47;;;18.60;55.70;;;;;;5118150;28;20028;-76
2023/06/16 03:29:12;;;;;;;8.40;4.90;;;18.50;56.10;;;;;;5100920;28;20020;-76
2023/06/16 03:31:39;;;;;;;6.50;4.25;;;18.50;55.90;;;;;;5117683;28;20035;-76
2023/06/16 03:34:05;;;;;;;6.32;4.20;;;18.50;55.80;;;;;;5135633;28;20031;-76
2023/06/16 03:36:36;;;;;;;7.10;4.72;;;18.50;56.00;;;;;;5135676;28;20024;-76
2023/06/16 03:39:05;;;;;;;8.85;4.20;;;18.50;56.40;;;;;;5135615;28;20053;-76
2023/06/16 03:41:34;;;;;;;6.38;4.68;;;18.50;56.30;;;;;;5135404;28;20047;-76
2023/06/16 03:43:59;;;;;;;9.07;4.90;;;18.50;55.90;;;;;;5117438;28;20040;-75
2023/06/16 03:46:27;;;;;;;6.40;4.47;;;18.50;56.10;;;;;;5117331;28;20030;-75
2023/06/16 03:48:52;;;;;;;8.73;4.68;;;18.50;56.10;;;;;;5135395;28;20024;-76
2023/06/16 03:51:18;;;;;;;7.30;5.03;;;18.50;55.80;;;;;;5117603;28;20053;-75
2023/06/16 03:53:44;;;;;;;8.18;4.93;;;18.50;56.40;;;;;;5134346;28;20032;-75
2023/06/16 03:56:09;;;;;;;7.38;5.15;;;18.50;56.60;;;;;;5117359;28;20088;-76
2023/06/16 03:58:36;;;;;;;6.90;4.50;;;18.50;56.60;;;;;;5135144;28;20134;-75
2023/06/16 04:01:02;;;;;;;7.65;4.47;;;18.50;56.30;;;;;;5117469;28;20098;-76
2023/06/16 04:03:27;;;;;;;12.40;4.75;;;18.50;56.20;;;;;;5135131;28;20039;-76
2023/06/16 04:05:53;;;;;;;10.88;4.72;;;18.40;56.50;;;;;;5135085;28;20012;-76
2023/06/16 04:08:20;;;;;;;11.23;5.70;;;18.20;56.80;;;;;;5100169;28;20028;-76
2023/06/16 04:10:46;;;;;;;9.18;4.93;;;18.10;57.60;;;;;;5100039;28;20031;-76
2023/06/16 04:13:12;;;;;;;8.70;5.63;;;18.10;59.50;;;;;;5116960;28;20027;-75
2023/06/16 04:15:38;;;;;;;9.75;5.53;;;18.20;59.20;;;;;;5116820;28;20039;-76
2023/06/16 04:18:04;;;;;;;10.18;5.97;;;18.20;59.20;;;;;;5134804;28;20031;-75
2023/06/16 04:20:31;;;;;;;8.85;5.82;;;18.20;59.40;;;;;;5134841;28;20056;-75
2023/06/16 04:22:56;;;;;;;8.40;5.65;;;18.10;60.00;;;;;;5117100;28;20020;-75
2023/06/16 04:25:22;;;;;;;9.15;6.60;;;18.10;60.10;;;;;;5116709;28;20040;-75
2023/06/16 04:27:50;;;;;;;10.05;6.30;;;18.00;60.80;;;;;;5083145;28;20058;-75
2023/06/16 04:30:22;;;;;;;9.43;5.88;;;17.90;60.90;;;;;;5134634;28;20028;-75
2023/06/16 04:32:49;;;;;;;9.60;6.00;;;17.90;61.20;;;;;;5116638;28;20023;-75
2023/06/16 04:35:15;;;;;;;11.65;6.50;;;18.00;60.70;;;;;;5134497;28;20055;-75
2023/06/16 04:37:41;;;;;;;8.55;5.80;;;18.10;60.60;;;;;;5134396;28;20020;-76
2023/06/16 04:40:08;;;;;;;13.48;6.10;;;18.20;60.90;;;;;;5116034;28;20040;-75
2023/06/16 04:42:34;;;;;;;10.05;5.97;;;18.20;60.40;;;;;;5134521;28;20043;-76
2023/06/16 04:45:00;;;;;;;15.40;7.95;;;18.30;60.50;;;;;;5134405;28;20023;-76
2023/06/16 04:47:26;;;;;;;9.90;6.82;;;18.30;60.60;;;;;;5134399;28;20077;-75
2023/06/16 04:49:51;;;;;;;11.07;6.95;;;18.30;61.30;;;;;;5134336;28;20051;-75
2023/06/16 04:52:17;;;;;;;10.13;6.97;;;18.30;62.30;;;;;;5116298;28;20077;-75
2023/06/16 04:54:43;;;;;;;9.50;6.82;;;18.30;62.70;;;;;;5134254;28;20024;-75
2023/06/16 04:57:09;;;;;;;11.13;7.45;;;18.40;63.40;;;;;;5134110;28;20031;-75
2023/06/16 04:59:35;;;;;;;10.68;7.18;;;18.50;63.50;;;;;;5134126;28;20024;-76
2023/06/16 05:02:01;;;;;;;10.65;7.28;;;18.50;63.20;;;;;;5134113;28;20016;-76
2023/06/16 05:04:27;;;;;;;12.45;7.75;;;18.60;63.10;;;;;;5134040;28;20023;-75
2023/06/16 05:06:52;;;;;;;10.15;7.90;;;18.60;63.40;;;;;;5133839;28;20045;-75
2023/06/16 05:09:20;;;;;;;14.00;7.25;;;18.70;63.50;;;;;;5116104;28;20044;-75
2023/06/16 05:11:46;;;;;;;11.13;7.38;;;18.70;64.30;;;;;;5116194;28;20024;-76
2023/06/16 05:14:11;;;;;;;11.35;7.55;;;18.70;64.40;;;;;;5133991;28;20062;-75
2023/06/16 05:16:37;;;;;;;13.63;7.40;;;18.80;64.80;;;;;;5133957;28;20028;-75
2023/06/16 05:19:03;;;;;;;10.27;7.13;;;18.80;64.60;;;;;;5115919;28;20035;-75
2023/06/16 05:21:28;;;;;;;11.90;7.13;;;18.90;63.70;;;;;;5115989;28;20015;-75
2023/06/16 05:23:54;;;;;;;10.48;7.25;;;19.00;63.40;;;;;;5115883;28;20028;-75
2023/06/16 05:26:21;;;;;;;10.23;7.15;;;19.00;63.40;;;;;;5115783;28;20057;-75
2023/06/16 05:28:47;;;;;;;10.93;6.75;;;19.00;63.30;;;;;;5133847;28;20027;-75
2023/06/16 05:31:13;;;;;;;12.35;7.30;;;19.10;62.70;;;;;;5098978;28;20027;-76
2023/06/16 05:33:38;;;;;;;10.27;6.68;;;19.20;62.70;;;;;;5133698;28;20031;-75
2023/06/16 05:36:04;;;;;;;10.00;6.90;;;19.20;62.90;;;;;;5115758;28;20023;-76
2023/06/16 05:38:30;;;;;;;11.20;6.65;;;19.30;63.10;;;;;;5115594;28;20045;-76
2023/06/16 05:40:56;;;;;;;9.63;7.38;;;19.30;63.10;;;;;;5133565;28;20044;-75
2023/06/16 05:43:21;;;;;;;9.77;6.50;;;19.30;63.00;;;;;;5133741;28;20533;-76
2023/06/16 05:45:47;;;;;;;10.00;6.57;;;19.40;62.90;;;;;;5115641;28;20045;-76
2023/06/16 05:48:13;;;;;;;10.23;7.15;;;19.50;62.60;;;;;;5115877;28;20474;-76
2023/06/16 05:50:38;;;;;;;10.55;6.93;;;19.50;62.60;;;;;;5133622;28;20057;-76
2023/06/16 05:53:04;;;;;;;10.73;6.55;;;19.50;62.70;;;;;;5115694;28;20027;-76
2023/06/16 05:55:30;;;;;;;12.00;6.45;;;19.50;62.60;;;;;;5115841;28;20031;-76
2023/06/16 05:57:55;;;;;;;9.90;6.35;;;19.60;62.50;;;;;;5115430;28;20046;-76
2023/06/16 06:00:21;;;;;;;9.23;6.68;;;19.60;62.50;;;;;;5115785;28;20092;-76
2023/06/16 06:02:46;;;;;;;9.40;6.10;;;19.70;62.50;;;;;;5115663;28;20036;-76
2023/06/16 06:05:12;;;;;;;8.27;6.18;;;19.70;62.40;;;;;;5098667;28;20027;-76
2023/06/16 06:07:38;;;;;;;10.10;5.80;;;19.80;62.30;;;;;;5133541;28;20028;-76
2023/06/16 06:10:04;;;;;;;8.10;5.70;;;19.80;62.30;;;;;;5115609;28;20020;-76
2023/06/16 06:12:29;;;;;;;10.55;5.75;;;19.90;62.10;;;;;;5081989;28;20031;-76
2023/06/16 06:14:55;;;;;;;8.77;5.85;;;19.90;61.80;;;;;;5098461;28;20037;-76
2023/06/16 06:17:20;;;;;;;10.55;6.38;;;20.00;61.70;;;;;;5099525;28;20028;-76
2023/06/16 06:19:47;;;;;;;8.75;6.35;;;20.00;61.70;;;;;;5085517;28;20019;-77
2023/06/16 06:22:12;;;;;;;9.07;5.75;;;20.10;61.50;;;;;;5102430;28;20016;-76
2023/06/16 06:24:38;;;;;;;9.85;6.28;;;20.20;60.80;;;;;;5085384;28;20046;-76
2023/06/16 06:27:04;;;;;;;8.57;5.60;;;20.20;60.70;;;;;;5102241;28;20054;-77
2023/06/16 06:29:30;;;;;;;9.32;5.97;;;20.30;60.90;;;;;;5102212;28;20027;-77
2023/06/16 06:31:56;;;;;;;9.45;5.55;;;20.40;60.90;;;;;;5136941;28;20515;-77
2023/06/16 06:34:21;;;;;;;7.65;5.32;;;20.40;60.40;;;;;;5136841;28;20039;-76
2023/06/16 06:36:47;;;;;;;9.38;5.35;;;20.50;60.00;;;;;;5118872;28;20028;-76
2023/06/16 06:39:13;;;;;;;9.43;5.57;;;20.50;59.90;;;;;;5118924;28;20023;-77
2023/06/16 06:41:40;;;;;;;8.57;5.65;;;20.60;59.90;;;;;;5136588;28;20097;-77
2023/06/16 06:44:06;;;;;;;8.57;5.15;;;20.60;59.60;;;;;;5102276;28;20084;-77
2023/06/16 06:46:31;;;;;;;9.55;5.25;;;20.70;59.60;;;;;;5118617;28;20493;-77
2023/06/16 06:48:57;;;;;;;8.25;5.55;;;20.80;59.30;;;;;;5118750;28;20023;-77
2023/06/16 06:51:23;;;;;;;6.88;4.70;;;20.80;58.80;;;;;;5085089;28;20041;-77
2023/06/16 06:53:49;;;;;;;8.35;4.82;;;20.80;58.40;;;;;;5118540;28;20023;-76
2023/06/16 06:56:15;;;;;;;7.13;4.82;;;20.90;58.30;;;;;;5136565;28;20068;-77
2023/06/16 06:58:41;;;;;;;9.32;6.15;;;20.90;57.60;;;;;;5136403;28;20034;-77
2023/06/16 07:01:07;;;;;;;8.30;6.07;;;21.00;56.90;;;;;;5101367;28;20023;-77
2023/06/16 07:03:32;;;;;;;10.30;6.55;;;21.10;55.50;;;;;;5118396;28;20035;-76
2023/06/16 07:05:58;;;;;;;9.52;6.38;;;21.10;55.50;;;;;;5101334;28;20035;-77
2023/06/16 07:08:24;;;;;;;8.32;5.38;;;21.20;55.50;;;;;;5136272;28;20047;-77
2023/06/16 07:10:50;;;;;;;7.78;5.85;;;21.30;55.20;;;;;;5136332;28;20087;-77
2023/06/16 07:13:16;;;;;;;8.57;6.35;;;21.30;54.70;;;;;;5101378;28;20051;-77
2023/06/16 07:15:42;;;;;;;7.35;4.57;;;21.40;54.70;;;;;;5136162;28;20032;-77
2023/06/16 07:18:07;;;;;;;4.93;3.92;;;21.50;54.10;;;;;;5101012;28;20028;-77
2023/06/16 07:20:33;;;;;;;5.63;3.55;;;21.50;53.20;;;;;;5118017;28;20031;-77
2023/06/16 07:22:59;;;;;;;8.52;3.53;;;21.50;50.40;;;;;;5118052;28;20038;-77
2023/06/16 07:25:26;;;;;;;4.28;3.20;;;21.60;50.60;;;;;;5100900;28;20028;-77
2023/06/16 07:27:52;;;;;;;6.32;3.25;;;21.70;49.90;;;;;;5101043;28;20028;-77
2023/06/16 07:30:18;;;;;;;5.15;3.38;;;21.80;49.90;;;;;;5117825;28;20035;-77
2023/06/16 07:32:45;;;;;;;4.75;3.10;;;21.80;48.70;;;;;;5135812;28;20023;-76
2023/06/16 07:35:11;;;;;;;6.32;3.15;;;21.80;48.90;;;;;;5117687;28;20478;-77
2023/06/16 07:37:37;;;;;;;5.22;3.08;;;21.90;48.30;;;;;;5117584;28;20016;-76
2023/06/16 07:40:06;;;;;;;7.18;3.55;;;22.00;48.60;;;;;;5117443;28;20055;-76
2023/06/16 07:42:32;;;;;;;9.23;3.42;;;22.10;47.80;;;;;;5135617;28;20080;-76
2023/06/16 07:44:58;;;;;;;7.32;3.50;;;22.10;47.60;;;;;;5135546;28;20027;-75
2023/06/16 07:47:23;;;;;;;5.97;3.28;;;22.20;47.60;;;;;;5117461;28;20115;-76
2023/06/16 07:49:49;;;;;;;4.30;2.97;;;22.30;46.70;;;;;;5117514;28;20019;-76
2023/06/16 07:52:15;;;;;;;5.75;3.30;;;22.30;45.80;;;;;;5117330;28;20020;-76
2023/06/16 07:54:41;;;;;;;4.05;2.75;;;22.40;46.70;;;;;;5135338;28;20069;-76
2023/06/16 07:57:07;;;;;;;4.05;2.95;;;22.50;46.20;;;;;;5100312;28;20490;-76
2023/06/16 07:59:33;;;;;;;4.68;3.20;;;22.50;45.00;;;;;;5135170;28;20020;-76
2023/06/16 08:02:01;;;;;;;3.97;2.70;;;22.60;45.50;;;;;;5135201;28;20035;-76
2023/06/16 08:04:29;;;;;;;4.32;3.22;;;22.60;45.80;;;;;;5135142;28;20027;-76
2023/06/16 08:06:56;;;;;;;5.85;2.92;;;22.70;45.20;;;;;;5100554;28;20030;-76
2023/06/16 08:09:23;;;;;;;4.18;3.25;;;22.80;45.10;;;;;;5135084;28;20020;-76
2023/06/16 08:11:49;;;;;;;6.07;3.30;;;22.90;45.00;;;;;;5135011;28;20020;-76
2023/06/16 08:14:15;;;;;;;5.55;3.45;;;23.00;45.00;;;;;;5116993;28;20024;-76
2023/06/16 08:16:41;;;;;;;6.72;3.47;;;23.00;45.10;;;;;;5134903;28;20042;-76
2023/06/16 08:19:08;;;;;;;3.97;3.20;;;23.00;42.90;;;;;;5116693;28;20051;-76
2023/06/16 08:21:37;;;;;;;4.88;3.22;;;23.10;41.40;;;;;;5134905;28;20027;-76
2023/06/16 08:24:03;;;;;;;6.00;3.50;;;23.10;43.20;;;;;;5117412;28;20049;-76
2023/06/16 08:26:29;;;;;;;4.45;2.85;;;23.20;42.40;;;;;;5134713;28;20023;-76
2023/06/16 08:28:55;;;;;;;3.72;3.03;;;23.30;42.70;;;;;;5116690;28;20102;-76
2023/06/16 08:31:21;;;;;;;4.30;2.88;;;23.30;40.20;;;;;;5134595;28;20023;-76
2023/06/16 08:33:46;;;;;;;6.75;3.10;;;23.30;41.30;;;;;;5134497;28;20037;-75
2023/06/16 08:36:12;;;;;;;4.55;2.65;;;23.40;39.10;;;;;;5099655;28;20062;-77
2023/06/16 08:38:38;;;;;;;3.33;2.92;;;23.40;39.10;;;;;;5134463;28;20039;-75
2023/06/16 08:41:10;;;;;;;4.63;3.10;;;23.40;39.10;;;;;;5115722;28;20058;-76
2023/06/16 08:43:38;;;;;;;4.57;3.00;;;23.40;39.50;;;;;;5117292;28;20019;-76
2023/06/16 08:46:08;;;;;;;3.85;2.95;;;23.50;39.50;;;;;;5134410;28;20027;-75
2023/06/16 08:48:35;;;;;;;5.97;3.03;;;23.60;39.60;;;;;;5134285;28;20023;-75
2023/06/16 08:51:02;;;;;;;7.00;3.10;;;23.70;39.80;;;;;;5116236;28;20031;-75
2023/06/16 08:53:33;;;;;;;4.07;2.83;;;23.80;39.50;;;;;;5116367;28;20019;-75
2023/06/16 08:56:00;;;;;;;4.45;2.72;;;23.90;39.00;;;;;;5116600;28;20027;-76
2023/06/16 08:58:27;;;;;;;3.20;2.90;;;24.00;39.60;;;;;;5099366;28;20028;-76
2023/06/16 09:00:53;;;;;;;4.78;2.92;;;24.10;38.60;;;;;;5116405;28;20083;-75
2023/06/16 09:03:19;;;;;;;7.60;3.10;;;24.10;38.50;;;;;;5116136;28;20031;-75
2023/06/16 09:05:46;;;;;;;3.47;2.60;;;24.20;35.90;;;;;;5134122;28;20382;-76
2023/06/16 09:08:12;;;;;;;3.65;2.75;;;24.20;37.30;;;;;;5099307;28;20030;-76
2023/06/16 09:10:37;;;;;;;4.82;3.00;;;24.30;37.00;;;;;;5134083;28;20036;-75
2023/06/16 09:13:03;;;;;;;5.03;2.80;;;24.30;37.70;;;;;;5116179;28;20027;-75
2023/06/16 09:15:29;;;;;;;7.30;3.25;;;24.40;36.20;;;;;;5134025;28;20028;-76
2023/06/16 09:17:56;;;;;;;4.50;2.95;;;24.30;35.20;;;;;;5115964;28;20032;-76
2023/06/16 09:20:23;;;;;;;6.72;3.10;;;24.20;36.00;;;;;;5133975;28;20012;-76
2023/06/16 09:22:59;;;;;;;4.10;2.97;;;24.30;36.60;;;;;;5133958;28;20154;-76
2023/06/16 09:25:25;;;;;;;7.20;3.20;;;24.40;37.60;;;;;;5115954;28;20027;-76
2023/06/16 09:27:52;;;;;;;4.13;3.05;;;24.50;36.10;;;;;;5115988;28;20032;-75
2023/06/16 09:30:20;;;;;;;4.13;2.80;;;24.50;35.70;;;;;;5082725;28;20072;-76
2023/06/16 09:32:50;;;;;;;5.85;3.50;;;24.50;36.90;;;;;;5133822;28;20053;-76
2023/06/16 09:35:23;;;;;;;7.40;3.15;;;24.50;36.10;;;;;;5133778;28;20031;-76
2023/06/16 09:37:52;;;;;;;3.80;2.90;;;24.60;36.30;;;;;;5115645;28;20043;-75
2023/06/16 09:40:20;;;;;;;5.45;2.92;;;24.70;36.00;;;;;;5133488;28;20058;-76
2023/06/16 09:42:47;;;;;;;4.57;3.20;;;24.70;37.20;;;;;;5115789;28;20051;-75
2023/06/16 09:45:14;;;;;;;3.75;2.95;;;24.80;36.70;;;;;;5133729;28;20436;-76
2023/06/16 09:47:48;;;;;;;4.57;3.50;;;24.90;37.00;;;;;;5133678;28;20414;-76
2023/06/16 09:50:16;;;;;;;4.22;3.13;;;25.00;35.20;;;;;;5115619;28;20455;-76
2023/06/16 09:52:43;;;;;;;6.07;3.30;;;25.10;34.90;;;;;;5135447;28;20028;-75
2023/06/16 09:55:12;;;;;;;8.48;3.47;;;25.10;34.10;;;;;;5137731;28;20045;-75
2023/06/16 09:57:40;;;;;;;4.80;3.28;;;25.20;34.70;;;;;;5137513;28;20027;-76
2023/06/16 10:00:15;;;;;;;4.50;3.17;;;25.30;34.40;;;;;;5119456;28;20023;-75
2023/06/16 10:02:50;;;;;;;4.90;3.35;;;25.30;34.20;;;;;;5137623;28;20027;-75
2023/06/16 10:05:21;;;;;;;4.40;3.47;;;25.40;33.70;;;;;;5137510;28;20102;-76
2023/06/16 10:07:51;;;;;;;5.97;3.22;;;25.40;32.90;;;;;;5137586;28;20110;-76
2023/06/16 10:10:22;;;;;;;5.30;3.40;;;25.40;31.70;;;;;;5119809;28;20080;-76
2023/06/16 10:12:49;;;;;;;4.45;3.08;;;25.40;33.00;;;;;;5119778;28;20054;-76
2023/06/16 10:15:40;;;;;;;4.57;3.10;;;25.50;33.70;;;;;;5119321;28;20028;-76
2023/06/16 10:18:07;;;;;;;6.43;3.10;;;25.70;32.10;;;;;;5109208;28;20103;-76
2023/06/16 10:20:33;;;;;;;4.25;2.95;;;25.70;33.10;;;;;;5119232;28;20011;-76
2023/06/16 10:23:00;;;;;;;4.45;3.17;;;25.80;34.40;;;;;;5102252;28;20031;-76
2023/06/16 10:25:28;;;;;;;4.65;2.85;;;25.90;33.90;;;;;;5119052;28;20061;-76
2023/06/16 10:27:55;;;;;;;4.30;3.10;;;26.00;34.00;;;;;;5118976;28;20119;-76
2023/06/16 10:30:21;;;;;;;4.57;3.03;;;26.10;32.50;;;;;;5118923;28;20038;-76
2023/06/16 10:32:48;;;;;;;5.43;3.40;;;25.90;30.20;;;;;;5136951;28;20028;-76
2023/06/16 10:35:14;;;;;;;4.28;3.25;;;25.70;31.40;;;;;;5101972;28;20034;-76
2023/06/16 10:37:40;;;;;;;7.28;3.47;;;25.80;32.60;;;;;;5101883;28;20028;-76
2023/06/16 10:40:10;;;;;;;4.93;3.45;;;25.80;33.10;;;;;;5136835;28;20014;-76
2023/06/16 10:42:38;;;;;;;4.60;3.45;;;26.00;34.00;;;;;;5136814;28;20099;-75
2023/06/16 10:45:39;;;;;;;5.68;3.08;;;26.20;33.60;;;;;;5136714;28;20026;-76
2023/06/16 10:48:11;;;;;;;6.65;3.63;;;26.20;32.00;;;;;;5082459;28;20028;-76
2023/06/16 10:50:41;;;;;;;7.03;4.88;;;26.20;33.40;;;;;;5136627;28;20054;-76
2023/06/16 10:53:10;;;;;;;4.60;3.22;;;26.00;33.30;;;;;;5136561;28;20020;-76
2023/06/16 10:56:04;;;;;;;7.28;3.38;;;26.20;34.00;;;;;;5136526;28;20034;-76
2023/06/16 10:58:30;;;;;;;4.93;3.45;;;26.30;33.30;;;;;;5135253;28;20085;-76
2023/06/16 11:01:02;;;;;;;6.57;3.50;;;26.50;33.20;;;;;;5136548;28;20019;-76
2023/06/16 11:03:34;;;;;;;6.38;3.40;;;26.60;33.10;;;;;;5135899;28;20036;-76
2023/06/16 11:06:00;;;;;;;6.75;3.90;;;26.60;31.90;;;;;;5136249;28;20061;-76
2023/06/16 11:08:28;;;;;;;6.15;3.50;;;26.40;32.80;;;;;;5136400;28;20028;-76
2023/06/16 11:11:01;;;;;;;6.00;3.40;;;26.40;33.00;;;;;;5118202;28;20053;-76
2023/06/16 11:13:33;;;;;;;5.07;3.50;;;26.50;33.30;;;;;;5136288;28;20023;-76
2023/06/16 11:16:00;;;;;;;4.43;3.10;;;26.60;34.50;;;;;;5136174;28;20032;-76
2023/06/16 11:18:28;;;;;;;4.13;3.10;;;26.80;34.40;;;;;;5136010;28;20023;-76
2023/06/16 11:21:06;;;;;;;4.70;3.22;;;27.00;35.10;;;;;;5118270;28;20023;-76
2023/06/16 11:23:34;;;;;;;4.68;3.40;;;27.10;33.90;;;;;;5136037;28;20023;-76
2023/06/16 11:26:07;;;;;;;5.40;3.55;;;27.30;33.30;;;;;;5117910;28;20027;-76
2023/06/16 11:28:33;;;;;;;5.90;3.33;;;27.30;32.90;;;;;;5135902;28;20024;-76
2023/06/16 11:31:01;;;;;;;5.72;3.72;;;27.40;31.90;;;;;;5117779;28;20035;-76
2023/06/16 11:33:28;;;;;;;5.50;3.58;;;27.30;30.60;;;;;;5135757;28;20023;-76
2023/06/16 11:35:54;;;;;;;4.93;3.40;;;27.30;31.80;;;;;;5117959;28;20019;-75
2023/06/16 11:38:24;;;;;;;5.35;3.58;;;27.30;32.10;;;;;;5135790;28;20020;-76
2023/06/16 11:40:50;;;;;;;6.85;3.40;;;27.40;30.80;;;;;;5135529;28;20044;-76
2023/06/16 11:43:18;;;;;;;5.38;3.13;;;27.40;30.20;;;;;;5117565;28;20028;-76
2023/06/16 11:45:44;;;;;;;5.28;3.15;;;27.50;29.80;;;;;;5117516;28;20020;-76
2023/06/16 11:48:09;;;;;;;4.43;3.00;;;27.50;30.00;;;;;;5135511;28;20075;-76
2023/06/16 11:50:36;;;;;;;3.97;3.30;;;27.60;30.00;;;;;;5117536;28;20356;-76
2023/06/16 11:53:02;;;;;;;5.57;3.20;;;27.70;31.00;;;;;;5117585;28;20381;-75
2023/06/16 11:55:28;;;;;;;5.53;3.38;;;27.80;30.40;;;;;;5135366;28;20019;-76
2023/06/16 11:57:54;;;;;;;4.70;3.35;;;27.90;30.60;;;;;;5135242;28;20023;-76
2023/06/16 12:00:21;;;;;;;3.78;3.20;;;28.00;30.30;;;;;;5117336;28;20068;-76
2023/06/16 12:02:49;;;;;;;4.88;3.30;;;28.00;29.40;;;;;;5135099;28;20022;-76
2023/06/16 12:05:22;;;;;;;3.88;3.10;;;28.00;29.40;;;;;;5117178;28;20016;-76
2023/06/16 12:07:49;;;;;;;5.15;2.80;;;28.10;30.30;;;;;;5117108;28;20023;-76
2023/06/16 12:10:15;;;;;;;5.85;3.20;;;28.10;29.20;;;;;;5117141;28;20027;-76
2023/06/16 12:12:45;;;;;;;4.07;3.10;;;28.20;29.20;;;;;;5134995;28;20020;-76
2023/06/16 12:15:16;;;;;;;4.43;3.30;;;28.30;29.10;;;;;;5116166;28;20440;-76
2023/06/16 12:17:42;;;;;;;4.82;3.40;;;28.30;29.20;;;;;;5134841;28;20027;-76
2023/06/16 12:20:10;;;;;;;4.72;3.35;;;28.40;29.60;;;;;;5116896;28;20495;-76
2023/06/16 12:22:39;;;;;;;5.13;3.22;;;28.40;30.00;;;;;;5116973;28;20025;-76
2023/06/16 12:25:15;;;;;;;5.05;3.40;;;28.50;29.70;;;;;;5117466;28;20027;-77
2023/06/16 12:27:49;;;;;;;4.38;3.28;;;28.60;29.30;;;;;;5117013;28;20040;-76
2023/06/16 12:30:16;;;;;;;6.55;3.25;;;28.70;29.50;;;;;;5134784;28;20027;-75
2023/06/16 12:32:42;;;;;;;4.40;3.35;;;28.70;29.60;;;;;;5116829;28;20038;-75
2023/06/16 12:35:09;;;;;;;5.78;3.20;;;28.70;28.70;;;;;;5134521;28;20079;-76
2023/06/16 12:37:35;;;;;;;4.80;3.22;;;28.80;28.90;;;;;;5116679;28;20103;-75
2023/06/16 12:40:06;;;;;;;4.68;3.15;;;28.60;27.40;;;;;;5116632;28;20026;-75
2023/06/16 12:42:33;;;;;;;7.43;3.60;;;28.50;28.30;;;;;;5134365;28;20048;-76
2023/06/16 12:45:01;;;;;;;6.03;3.20;;;28.60;28.70;;;;;;5116457;28;20024;-76
2023/06/16 12:47:28;;;;;;;3.50;3.10;;;28.70;28.60;;;;;;5134388;28;20028;-75